Saint Louis, Missouri
Traffic Map
Current Weather Conditions
Saint Louis, Missouri
Broken Clouds
Broken Clouds
27°
Feels Like: 29°
Wind Chill: 27° Ceiling: 9000
Heat Index: 29° Visibility: 10mi
Dew Point: 23° Wind: 12mph
Humidity: 79% Direction: 200° (SSW)
Pressure: 29.96in Gusts: 0mph
Raw Report DataKCPS 301753Z 20010KT 10SM SCT018 BKN090 27/23 A2996 RMK AO2 RAE1657B31E49 SLP140 P0001 60001 T02670228 10272 20222 58005
Traffic Incident Summary
Active as of:
Severity:
Category:
InformationThere was an issue retrieving the traffic information for this location. Please try a different location or try again shortly.
Advertisements
Track Severe Weather on mobile